Impacts METAR Board
IDs:

KGYB - Giddings/Lee Cnty, TX, US

Updated at: 0300 UTC 06 Dec 2019
Potential Impact None Slight Moderate High
Time 05/15Z 05/16Z 05/17Z 05/18Z 05/19Z 05/20Z 05/21Z 05/22Z 05/23Z 06/00Z 06/01Z 06/02Z 06/03Z
Temp56 57 58 58 60 64 68 71 71 68 67 65 66
Dewpt56 57 58 58 59 57 57 59 60 60 60 60 61
Altim30.06 30.08 30.08 30.06 30.02 29.99 29.97 29.95 29.95 29.96 29.96 29.97 29.99
VIS0.25 0.5 5 7 10 10 10 10 10 10 10 10 10
CIG1 1 3 5 16 26 -- -- -- -- -- -- --
CoverOVCOVCOVCOVCBKNOVCSCTSCTCLRCLRCLRCLRCLR
FltCatLIFRLIFRLIFRIFRMVFRMVFRVFRVFRVFRVFRVFRVFRVFR
WXFGFGBR--------------------
WDir00002002001901902000000
WSpd0 0 0 0 6 12 5 8 6 0 0 0 0
WGst-- -- -- -- 16 15 14 -- -- -- -- -- --
Raw hourly METARs
KGYB 051455Z AUTO 00000KT 1/4SM FG OVC001 14/14 A3006 RMK AO2 T01350135
KGYB 051555Z AUTO 00000KT 1/2SM FG OVC001 14/14 A3008 RMK AO2 T01380138
KGYB 051655Z AUTO 00000KT 5SM BR OVC003 14/14 A3008 RMK AO2 T01420142
KGYB 051755Z AUTO 00000KT 7SM OVC005 14/14 A3006 RMK AO2 T01430143 10143 20132
KGYB 051855Z AUTO 20006G16KT 10SM SCT010 BKN016 BKN025 16/15 A3002 RMK AO2 T01560150
KGYB 051955Z AUTO 20012G15KT 10SM SCT018 OVC026 18/14 A2999 RMK AO2 T01780138
KGYB 052055Z AUTO 19005G14KT 10SM SCT024 SCT029 20/14 A2997 RMK AO2 T02000139
KGYB 052155Z AUTO 19008KT 10SM SCT025 22/15 A2995 RMK AO2 T02150149
KGYB 052255Z AUTO 20006KT 10SM CLR 22/15 A2995 RMK AO2 T02150153
KGYB 052355Z AUTO 00000KT 10SM CLR 20/16 A2996 RMK AO2 T02010157 10216 20142
KGYB 060055Z AUTO 00000KT 10SM CLR 19/16 A2996 RMK AO2 T01920157
KGYB 060155Z AUTO 00000KT 10SM CLR 19/16 A2997 RMK AO2 T01860156
KGYB 060255Z AUTO 00000KT 10SM CLR 19/16 A2999 RMK AO2 T01900161